sensor_id;sensor_type;location;lat;lon;timestamp;P1;durP1;ratioP1;P2;durP2;ratioP2
6665;SDS011;3369;49.906;8.598;2023-04-25T00:02:00;3.83;;;3.50;;
6665;SDS011;3369;49.906;8.598;2023-04-25T00:04:27;3.27;;;3.07;;
6665;SDS011;3369;49.906;8.598;2023-04-25T00:06:55;3.77;;;3.47;;
6665;SDS011;3369;49.906;8.598;2023-04-25T00:09:21;4.00;;;3.37;;
6665;SDS011;3369;49.906;8.598;2023-04-25T00:11:47;4.03;;;3.63;;
6665;SDS011;3369;49.906;8.598;2023-04-25T00:14:13;3.97;;;3.67;;
6665;SDS011;3369;49.906;8.598;2023-04-25T00:16:39;3.53;;;3.23;;
6665;SDS011;3369;49.906;8.598;2023-04-25T00:19:06;4.20;;;3.80;;
6665;SDS011;3369;49.906;8.598;2023-04-25T00:21:32;4.60;;;4.20;;
6665;SDS011;3369;49.906;8.598;2023-04-25T00:23:58;4.30;;;3.93;;
6665;SDS011;3369;49.906;8.598;2023-04-25T00:26:24;4.20;;;3.80;;
6665;SDS011;3369;49.906;8.598;2023-04-25T00:28:50;4.23;;;3.83;;
6665;SDS011;3369;49.906;8.598;2023-04-25T00:31:15;5.17;;;4.67;;
6665;SDS011;3369;49.906;8.598;2023-04-25T00:33:41;4.50;;;4.10;;
6665;SDS011;3369;49.906;8.598;2023-04-25T00:36:07;4.13;;;3.77;;
6665;SDS011;3369;49.906;8.598;2023-04-25T00:38:33;4.33;;;3.93;;
6665;SDS011;3369;49.906;8.598;2023-04-25T00:40:58;4.10;;;3.80;;
6665;SDS011;3369;49.906;8.598;2023-04-25T00:43:27;5.30;;;4.80;;
6665;SDS011;3369;49.906;8.598;2023-04-25T00:45:55;4.67;;;4.27;;
6665;SDS011;3369;49.906;8.598;2023-04-25T00:48:22;5.27;;;3.97;;
6665;SDS011;3369;49.906;8.598;2023-04-25T00:50:51;5.67;;;4.47;;
6665;SDS011;3369;49.906;8.598;2023-04-25T00:53:21;4.37;;;4.00;;
6665;SDS011;3369;49.906;8.598;2023-04-25T00:55:47;4.50;;;4.10;;
6665;SDS011;3369;49.906;8.598;2023-04-25T00:58:15;4.83;;;3.87;;
6665;SDS011;3369;49.906;8.598;2023-04-25T01:00:45;4.27;;;3.97;;
6665;SDS011;3369;49.906;8.598;2023-04-25T01:03:12;4.30;;;3.70;;
6665;SDS011;3369;49.906;8.598;2023-04-25T01:05:42;4.53;;;4.13;;
6665;SDS011;3369;49.906;8.598;2023-04-25T01:29:10;6.70;;;5.47;;
6665;SDS011;3369;49.906;8.598;2023-04-25T01:31:36;5.43;;;4.90;;
6665;SDS011;3369;49.906;8.598;2023-04-25T01:34:02;5.00;;;4.60;;
6665;SDS011;3369;49.906;8.598;2023-04-25T01:36:28;5.03;;;4.63;;
6665;SDS011;3369;49.906;8.598;2023-04-25T01:38:54;4.67;;;4.27;;
6665;SDS011;3369;49.906;8.598;2023-04-25T01:41:20;4.40;;;4.00;;
6665;SDS011;3369;49.906;8.598;2023-04-25T01:43:48;4.13;;;3.83;;
6665;SDS011;3369;49.906;8.598;2023-04-25T01:46:13;5.17;;;4.63;;
6665;SDS011;3369;49.906;8.598;2023-04-25T01:48:39;4.50;;;4.10;;
6665;SDS011;3369;49.906;8.598;2023-04-25T01:51:05;5.07;;;3.93;;
6665;SDS011;3369;49.906;8.598;2023-04-25T01:53:31;5.43;;;4.90;;
6665;SDS011;3369;49.906;8.598;2023-04-25T01:55:56;5.23;;;4.83;;
6665;SDS011;3369;49.906;8.598;2023-04-25T01:58:22;5.20;;;4.70;;
6665;SDS011;3369;49.906;8.598;2023-04-25T02:00:48;5.23;;;4.73;;
6665;SDS011;3369;49.906;8.598;2023-04-25T02:03:13;5.50;;;4.90;;
6665;SDS011;3369;49.906;8.598;2023-04-25T02:05:39;5.07;;;4.60;;
6665;SDS011;3369;49.906;8.598;2023-04-25T02:08:06;5.87;;;5.37;;
6665;SDS011;3369;49.906;8.598;2023-04-25T02:10:33;5.53;;;5.03;;
6665;SDS011;3369;49.906;8.598;2023-04-25T02:12:59;5.03;;;4.60;;
6665;SDS011;3369;49.906;8.598;2023-04-25T02:15:26;5.10;;;4.60;;
6665;SDS011;3369;49.906;8.598;2023-04-25T02:17:51;5.50;;;5.00;;
6665;SDS011;3369;49.906;8.598;2023-04-25T02:20:20;5.50;;;4.57;;
6665;SDS011;3369;49.906;8.598;2023-04-25T02:22:46;4.77;;;4.27;;
6665;SDS011;3369;49.906;8.598;2023-04-25T02:25:12;5.67;;;5.17;;
6665;SDS011;3369;49.906;8.598;2023-04-25T02:27:38;6.03;;;4.87;;
6665;SDS011;3369;49.906;8.598;2023-04-25T02:30:04;6.37;;;5.27;;
6665;SDS011;3369;49.906;8.598;2023-04-25T02:32:31;5.07;;;4.67;;
6665;SDS011;3369;49.906;8.598;2023-04-25T02:34:59;4.97;;;4.57;;
6665;SDS011;3369;49.906;8.598;2023-04-25T02:37:28;6.07;;;4.43;;
6665;SDS011;3369;49.906;8.598;2023-04-25T02:39:55;6.17;;;5.43;;
6665;SDS011;3369;49.906;8.598;2023-04-25T02:42:20;5.43;;;4.97;;
6665;SDS011;3369;49.906;8.598;2023-04-25T02:44:46;5.80;;;5.30;;
6665;SDS011;3369;49.906;8.598;2023-04-25T02:47:11;6.30;;;5.60;;
6665;SDS011;3369;49.906;8.598;2023-04-25T02:49:37;5.87;;;5.27;;
6665;SDS011;3369;49.906;8.598;2023-04-25T02:52:03;5.63;;;5.13;;
6665;SDS011;3369;49.906;8.598;2023-04-25T02:54:28;6.37;;;5.77;;
6665;SDS011;3369;49.906;8.598;2023-04-25T02:56:55;6.00;;;5.40;;
6665;SDS011;3369;49.906;8.598;2023-04-25T02:59:20;5.60;;;5.10;;
6665;SDS011;3369;49.906;8.598;2023-04-25T03:01:46;6.07;;;5.47;;
6665;SDS011;3369;49.906;8.598;2023-04-25T03:04:11;5.90;;;5.40;;
6665;SDS011;3369;49.906;8.598;2023-04-25T03:06:37;5.90;;;5.40;;
6665;SDS011;3369;49.906;8.598;2023-04-25T03:09:03;6.63;;;6.03;;
6665;SDS011;3369;49.906;8.598;2023-04-25T03:11:29;6.20;;;5.60;;
6665;SDS011;3369;49.906;8.598;2023-04-25T03:13:54;5.97;;;5.47;;
6665;SDS011;3369;49.906;8.598;2023-04-25T03:16:20;6.40;;;5.10;;
6665;SDS011;3369;49.906;8.598;2023-04-25T03:18:46;5.87;;;5.27;;
6665;SDS011;3369;49.906;8.598;2023-04-25T03:21:12;6.27;;;5.33;;
6665;SDS011;3369;49.906;8.598;2023-04-25T03:23:37;5.77;;;5.27;;
6665;SDS011;3369;49.906;8.598;2023-04-25T03:26:03;6.03;;;5.43;;
6665;SDS011;3369;49.906;8.598;2023-04-25T03:28:29;5.30;;;4.80;;
6665;SDS011;3369;49.906;8.598;2023-04-25T03:30:54;5.00;;;4.60;;
6665;SDS011;3369;49.906;8.598;2023-04-25T03:33:20;5.87;;;5.37;;
6665;SDS011;3369;49.906;8.598;2023-04-25T03:35:46;5.93;;;5.40;;
6665;SDS011;3369;49.906;8.598;2023-04-25T03:38:12;6.03;;;5.20;;
6665;SDS011;3369;49.906;8.598;2023-04-25T03:40:37;5.53;;;5.03;;
6665;SDS011;3369;49.906;8.598;2023-04-25T03:43:03;5.40;;;4.90;;
6665;SDS011;3369;49.906;8.598;2023-04-25T03:45:28;5.50;;;5.00;;
6665;SDS011;3369;49.906;8.598;2023-04-25T03:47:54;5.30;;;4.87;;
6665;SDS011;3369;49.906;8.598;2023-04-25T03:50:20;6.63;;;6.03;;
6665;SDS011;3369;49.906;8.598;2023-04-25T03:52:46;5.40;;;4.90;;
6665;SDS011;3369;49.906;8.598;2023-04-25T03:55:11;5.23;;;4.73;;
6665;SDS011;3369;49.906;8.598;2023-04-25T03:57:37;5.03;;;4.63;;
6665;SDS011;3369;49.906;8.598;2023-04-25T04:00:03;6.00;;;5.37;;
6665;SDS011;3369;49.906;8.598;2023-04-25T04:02:29;5.53;;;5.03;;
6665;SDS011;3369;49.906;8.598;2023-04-25T04:04:54;5.43;;;4.93;;
6665;SDS011;3369;49.906;8.598;2023-04-25T04:07:21;8.93;;;5.40;;
6665;SDS011;3369;49.906;8.598;2023-04-25T04:09:47;5.97;;;5.43;;
6665;SDS011;3369;49.906;8.598;2023-04-25T04:12:12;5.73;;;5.23;;
6665;SDS011;3369;49.906;8.598;2023-04-25T04:14:38;5.30;;;4.80;;
6665;SDS011;3369;49.906;8.598;2023-04-25T04:17:04;5.63;;;5.13;;
6665;SDS011;3369;49.906;8.598;2023-04-25T04:19:31;4.57;;;4.17;;
6665;SDS011;3369;49.906;8.598;2023-04-25T04:21:56;6.07;;;5.50;;
6665;SDS011;3369;49.906;8.598;2023-04-25T04:24:22;4.77;;;4.37;;
6665;SDS011;3369;49.906;8.598;2023-04-25T04:26:49;5.20;;;4.73;;
6665;SDS011;3369;49.906;8.598;2023-04-25T04:29:15;4.53;;;4.13;;
6665;SDS011;3369;49.906;8.598;2023-04-25T04:31:47;4.60;;;4.20;;
6665;SDS011;3369;49.906;8.598;2023-04-25T04:34:14;4.90;;;4.50;;
6665;SDS011;3369;49.906;8.598;2023-04-25T04:36:41;6.37;;;5.30;;
6665;SDS011;3369;49.906;8.598;2023-04-25T04:39:07;6.90;;;6.10;;
6665;SDS011;3369;49.906;8.598;2023-04-25T04:41:34;6.10;;;5.50;;
6665;SDS011;3369;49.906;8.598;2023-04-25T04:43:59;6.97;;;6.23;;
6665;SDS011;3369;49.906;8.598;2023-04-25T04:46:26;7.60;;;6.80;;
6665;SDS011;3369;49.906;8.598;2023-04-25T04:48:53;6.70;;;6.10;;
6665;SDS011;3369;49.906;8.598;2023-04-25T04:51:18;7.53;;;6.57;;
6665;SDS011;3369;49.906;8.598;2023-04-25T04:53:45;8.70;;;6.40;;
6665;SDS011;3369;49.906;8.598;2023-04-25T04:56:11;8.60;;;6.70;;
6665;SDS011;3369;49.906;8.598;2023-04-25T04:58:37;6.77;;;6.17;;
6665;SDS011;3369;49.906;8.598;2023-04-25T05:01:02;6.97;;;6.23;;
6665;SDS011;3369;49.906;8.598;2023-04-25T05:03:28;6.43;;;5.83;;
6665;SDS011;3369;49.906;8.598;2023-04-25T05:05:54;8.17;;;6.13;;
6665;SDS011;3369;49.906;8.598;2023-04-25T05:08:20;8.80;;;7.17;;
6665;SDS011;3369;49.906;8.598;2023-04-25T05:10:45;8.30;;;6.10;;
6665;SDS011;3369;49.906;8.598;2023-04-25T05:13:11;7.83;;;6.07;;
6665;SDS011;3369;49.906;8.598;2023-04-25T05:15:36;8.97;;;6.47;;
6665;SDS011;3369;49.906;8.598;2023-04-25T05:18:02;12.33;;;7.37;;
6665;SDS011;3369;49.906;8.598;2023-04-25T05:20:28;10.47;;;6.43;;
6665;SDS011;3369;49.906;8.598;2023-04-25T05:22:54;7.10;;;5.57;;
6665;SDS011;3369;49.906;8.598;2023-04-25T05:25:20;10.17;;;6.00;;
6665;SDS011;3369;49.906;8.598;2023-04-25T05:27:45;8.70;;;5.83;;
6665;SDS011;3369;49.906;8.598;2023-04-25T05:30:11;7.27;;;5.67;;
6665;SDS011;3369;49.906;8.598;2023-04-25T05:32:37;9.00;;;6.57;;
6665;SDS011;3369;49.906;8.598;2023-04-25T05:35:02;8.77;;;6.07;;
6665;SDS011;3369;49.906;8.598;2023-04-25T05:37:28;10.80;;;5.80;;
6665;SDS011;3369;49.906;8.598;2023-04-25T05:39:56;7.77;;;6.10;;
6665;SDS011;3369;49.906;8.598;2023-04-25T05:42:21;7.90;;;5.33;;
6665;SDS011;3369;49.906;8.598;2023-04-25T05:44:47;7.40;;;5.70;;
6665;SDS011;3369;49.906;8.598;2023-04-25T05:47:13;8.33;;;5.87;;
6665;SDS011;3369;49.906;8.598;2023-04-25T05:49:38;6.87;;;5.30;;
6665;SDS011;3369;49.906;8.598;2023-04-25T05:52:04;7.17;;;5.70;;
6665;SDS011;3369;49.906;8.598;2023-04-25T05:54:30;5.97;;;5.00;;
6665;SDS011;3369;49.906;8.598;2023-04-25T05:56:58;7.30;;;5.20;;
6665;SDS011;3369;49.906;8.598;2023-04-25T05:59:24;6.70;;;5.47;;
6665;SDS011;3369;49.906;8.598;2023-04-25T06:01:50;7.33;;;5.43;;
6665;SDS011;3369;49.906;8.598;2023-04-25T06:04:16;9.23;;;5.97;;
6665;SDS011;3369;49.906;8.598;2023-04-25T06:06:42;7.57;;;5.33;;
6665;SDS011;3369;49.906;8.598;2023-04-25T06:09:07;8.10;;;5.83;;
6665;SDS011;3369;49.906;8.598;2023-04-25T06:11:33;6.80;;;5.60;;
6665;SDS011;3369;49.906;8.598;2023-04-25T06:13:58;7.63;;;5.90;;
6665;SDS011;3369;49.906;8.598;2023-04-25T06:16:24;12.70;;;6.07;;
6665;SDS011;3369;49.906;8.598;2023-04-25T06:18:50;8.67;;;6.00;;
6665;SDS011;3369;49.906;8.598;2023-04-25T06:21:16;6.97;;;5.43;;
6665;SDS011;3369;49.906;8.598;2023-04-25T06:23:42;7.93;;;5.03;;
6665;SDS011;3369;49.906;8.598;2023-04-25T06:26:07;6.77;;;5.23;;
6665;SDS011;3369;49.906;8.598;2023-04-25T06:28:33;7.80;;;4.73;;
6665;SDS011;3369;49.906;8.598;2023-04-25T06:30:59;5.13;;;4.40;;
6665;SDS011;3369;49.906;8.598;2023-04-25T06:33:24;4.87;;;4.30;;
6665;SDS011;3369;49.906;8.598;2023-04-25T06:35:50;6.87;;;4.67;;
6665;SDS011;3369;49.906;8.598;2023-04-25T06:38:15;8.40;;;5.10;;
6665;SDS011;3369;49.906;8.598;2023-04-25T06:40:41;6.77;;;4.07;;
6665;SDS011;3369;49.906;8.598;2023-04-25T06:43:07;8.30;;;4.70;;
6665;SDS011;3369;49.906;8.598;2023-04-25T06:45:32;4.77;;;3.90;;
6665;SDS011;3369;49.906;8.598;2023-04-25T06:47:58;4.60;;;3.73;;
6665;SDS011;3369;49.906;8.598;2023-04-25T07:12:37;7.13;;;4.40;;
6665;SDS011;3369;49.906;8.598;2023-04-25T07:15:03;4.87;;;4.37;;
6665;SDS011;3369;49.906;8.598;2023-04-25T07:17:31;6.30;;;4.83;;
6665;SDS011;3369;49.906;8.598;2023-04-25T07:19:57;6.87;;;4.53;;
6665;SDS011;3369;49.906;8.598;2023-04-25T07:22:23;7.60;;;4.90;;
6665;SDS011;3369;49.906;8.598;2023-04-25T07:24:49;9.67;;;5.00;;
6665;SDS011;3369;49.906;8.598;2023-04-25T07:27:15;8.63;;;5.20;;
6665;SDS011;3369;49.906;8.598;2023-04-25T07:29:40;6.80;;;4.30;;
6665;SDS011;3369;49.906;8.598;2023-04-25T07:32:06;4.90;;;4.00;;
6665;SDS011;3369;49.906;8.598;2023-04-25T07:34:32;5.10;;;3.67;;
6665;SDS011;3369;49.906;8.598;2023-04-25T07:37:02;4.87;;;4.47;;
6665;SDS011;3369;49.906;8.598;2023-04-25T07:39:27;8.63;;;5.20;;
6665;SDS011;3369;49.906;8.598;2023-04-25T07:41:53;5.17;;;4.20;;
6665;SDS011;3369;49.906;8.598;2023-04-25T07:44:19;7.50;;;4.57;;
6665;SDS011;3369;49.906;8.598;2023-04-25T07:46:45;7.27;;;4.17;;
6665;SDS011;3369;49.906;8.598;2023-04-25T07:49:10;4.53;;;3.33;;
6665;SDS011;3369;49.906;8.598;2023-04-25T07:51:36;6.23;;;4.30;;
6665;SDS011;3369;49.906;8.598;2023-04-25T07:54:02;4.87;;;3.57;;
6665;SDS011;3369;49.906;8.598;2023-04-25T07:56:28;7.13;;;3.90;;
6665;SDS011;3369;49.906;8.598;2023-04-25T07:58:53;3.90;;;3.00;;
6665;SDS011;3369;49.906;8.598;2023-04-25T08:01:19;3.73;;;2.43;;
6665;SDS011;3369;49.906;8.598;2023-04-25T08:03:46;4.03;;;3.30;;
6665;SDS011;3369;49.906;8.598;2023-04-25T08:06:12;4.13;;;2.90;;
6665;SDS011;3369;49.906;8.598;2023-04-25T08:08:37;3.03;;;2.60;;
6665;SDS011;3369;49.906;8.598;2023-04-25T08:11:03;4.90;;;3.43;;
6665;SDS011;3369;49.906;8.598;2023-04-25T08:13:28;2.53;;;2.33;;
6665;SDS011;3369;49.906;8.598;2023-04-25T08:15:54;5.10;;;2.60;;
6665;SDS011;3369;49.906;8.598;2023-04-25T08:18:20;3.97;;;3.07;;
6665;SDS011;3369;49.906;8.598;2023-04-25T08:20:45;10.27;;;3.57;;
6665;SDS011;3369;49.906;8.598;2023-04-25T08:23:11;3.53;;;3.10;;
6665;SDS011;3369;49.906;8.598;2023-04-25T08:25:37;5.17;;;3.20;;
6665;SDS011;3369;49.906;8.598;2023-04-25T08:28:03;4.73;;;3.00;;
6665;SDS011;3369;49.906;8.598;2023-04-25T08:30:29;6.73;;;3.00;;
6665;SDS011;3369;49.906;8.598;2023-04-25T08:32:55;4.67;;;2.73;;
6665;SDS011;3369;49.906;8.598;2023-04-25T08:35:20;3.93;;;2.77;;
6665;SDS011;3369;49.906;8.598;2023-04-25T08:37:46;3.57;;;2.83;;
6665;SDS011;3369;49.906;8.598;2023-04-25T08:40:13;3.97;;;3.13;;
6665;SDS011;3369;49.906;8.598;2023-04-25T08:42:43;4.10;;;2.50;;
6665;SDS011;3369;49.906;8.598;2023-04-25T08:45:09;2.73;;;2.50;;
6665;SDS011;3369;49.906;8.598;2023-04-25T08:47:35;4.40;;;2.40;;
6665;SDS011;3369;49.906;8.598;2023-04-25T08:50:03;4.67;;;2.80;;
6665;SDS011;3369;49.906;8.598;2023-04-25T08:52:32;4.27;;;2.60;;
6665;SDS011;3369;49.906;8.598;2023-04-25T08:55:08;4.40;;;2.83;;
6665;SDS011;3369;49.906;8.598;2023-04-25T08:57:34;5.33;;;3.03;;
6665;SDS011;3369;49.906;8.598;2023-04-25T09:00:00;6.83;;;3.10;;
6665;SDS011;3369;49.906;8.598;2023-04-25T09:02:26;3.27;;;2.10;;
6665;SDS011;3369;49.906;8.598;2023-04-25T09:04:53;3.10;;;2.53;;
6665;SDS011;3369;49.906;8.598;2023-04-25T09:07:20;3.63;;;2.47;;
6665;SDS011;3369;49.906;8.598;2023-04-25T09:09:46;3.80;;;2.30;;
6665;SDS011;3369;49.906;8.598;2023-04-25T09:12:12;2.10;;;1.90;;
6665;SDS011;3369;49.906;8.598;2023-04-25T09:14:38;2.60;;;2.10;;
6665;SDS011;3369;49.906;8.598;2023-04-25T09:17:04;2.80;;;1.83;;
6665;SDS011;3369;49.906;8.598;2023-04-25T09:19:33;2.07;;;1.80;;
6665;SDS011;3369;49.906;8.598;2023-04-25T09:22:01;3.20;;;2.30;;
6665;SDS011;3369;49.906;8.598;2023-04-25T09:24:35;6.20;;;2.10;;
6665;SDS011;3369;49.906;8.598;2023-04-25T09:27:09;2.83;;;2.50;;
6665;SDS011;3369;49.906;8.598;2023-04-25T09:29:37;5.83;;;2.40;;
6665;SDS011;3369;49.906;8.598;2023-04-25T09:32:10;2.67;;;2.27;;
6665;SDS011;3369;49.906;8.598;2023-04-25T09:34:43;3.33;;;2.00;;
6665;SDS011;3369;49.906;8.598;2023-04-25T09:37:16;2.30;;;2.10;;
6665;SDS011;3369;49.906;8.598;2023-04-25T09:39:56;1.97;;;1.83;;
6665;SDS011;3369;49.906;8.598;2023-04-25T09:42:24;4.00;;;2.50;;
6665;SDS011;3369;49.906;8.598;2023-04-25T09:44:52;3.47;;;2.50;;
6665;SDS011;3369;49.906;8.598;2023-04-25T09:47:19;2.93;;;2.60;;
6665;SDS011;3369;49.906;8.598;2023-04-25T09:49:48;3.53;;;2.53;;
6665;SDS011;3369;49.906;8.598;2023-04-25T09:52:15;2.80;;;2.10;;
6665;SDS011;3369;49.906;8.598;2023-04-25T09:54:43;4.00;;;2.60;;
6665;SDS011;3369;49.906;8.598;2023-04-25T09:59:46;2.77;;;2.30;;
6665;SDS011;3369;49.906;8.598;2023-04-25T10:02:14;3.03;;;2.40;;
6665;SDS011;3369;49.906;8.598;2023-04-25T10:04:42;4.30;;;2.43;;
6665;SDS011;3369;49.906;8.598;2023-04-25T10:07:12;4.30;;;2.67;;
6665;SDS011;3369;49.906;8.598;2023-04-25T10:09:39;2.77;;;2.27;;
6665;SDS011;3369;49.906;8.598;2023-04-25T10:12:06;6.97;;;2.43;;
6665;SDS011;3369;49.906;8.598;2023-04-25T10:14:33;3.23;;;2.30;;
6665;SDS011;3369;49.906;8.598;2023-04-25T10:16:59;6.70;;;2.83;;
6665;SDS011;3369;49.906;8.598;2023-04-25T10:19:26;4.70;;;2.87;;
6665;SDS011;3369;49.906;8.598;2023-04-25T10:22:00;4.20;;;3.10;;
6665;SDS011;3369;49.906;8.598;2023-04-25T10:24:30;3.57;;;2.90;;
6665;SDS011;3369;49.906;8.598;2023-04-25T10:26:56;3.40;;;3.10;;
6665;SDS011;3369;49.906;8.598;2023-04-25T10:29:24;6.57;;;3.20;;
6665;SDS011;3369;49.906;8.598;2023-04-25T10:31:50;3.77;;;2.93;;
6665;SDS011;3369;49.906;8.598;2023-04-25T10:34:16;4.57;;;3.30;;
6665;SDS011;3369;49.906;8.598;2023-04-25T10:36:42;4.60;;;3.40;;
6665;SDS011;3369;49.906;8.598;2023-04-25T10:39:13;3.70;;;3.23;;
6665;SDS011;3369;49.906;8.598;2023-04-25T10:41:58;5.17;;;3.07;;
6665;SDS011;3369;49.906;8.598;2023-04-25T10:44:28;6.67;;;3.43;;
6665;SDS011;3369;49.906;8.598;2023-04-25T10:46:55;4.97;;;3.50;;
6665;SDS011;3369;49.906;8.598;2023-04-25T10:49:29;3.10;;;2.80;;
6665;SDS011;3369;49.906;8.598;2023-04-25T10:54:54;3.80;;;3.17;;
6665;SDS011;3369;49.906;8.598;2023-04-25T10:57:31;4.40;;;3.40;;
6665;SDS011;3369;49.906;8.598;2023-04-25T11:00:00;4.10;;;3.50;;
6665;SDS011;3369;49.906;8.598;2023-04-25T11:02:30;3.73;;;3.40;;
6665;SDS011;3369;49.906;8.598;2023-04-25T11:04:56;5.20;;;4.07;;
6665;SDS011;3369;49.906;8.598;2023-04-25T11:10:10;4.10;;;3.17;;
6665;SDS011;3369;49.906;8.598;2023-04-25T11:12:36;4.17;;;3.40;;
6665;SDS011;3369;49.906;8.598;2023-04-25T11:15:05;5.10;;;3.27;;
6665;SDS011;3369;49.906;8.598;2023-04-25T11:17:32;4.93;;;3.50;;
6665;SDS011;3369;49.906;8.598;2023-04-25T11:20:00;4.20;;;3.03;;
6665;SDS011;3369;49.906;8.598;2023-04-25T11:22:26;3.40;;;3.07;;
6665;SDS011;3369;49.906;8.598;2023-04-25T11:24:52;5.03;;;3.20;;
6665;SDS011;3369;49.906;8.598;2023-04-25T11:27:18;3.47;;;3.17;;
6665;SDS011;3369;49.906;8.598;2023-04-25T11:29:44;5.63;;;3.57;;
6665;SDS011;3369;49.906;8.598;2023-04-25T11:32:12;6.63;;;4.03;;
6665;SDS011;3369;49.906;8.598;2023-04-25T11:34:42;7.60;;;3.60;;
6665;SDS011;3369;49.906;8.598;2023-04-25T11:37:08;6.03;;;3.37;;
6665;SDS011;3369;49.906;8.598;2023-04-25T11:39:34;4.43;;;3.87;;
6665;SDS011;3369;49.906;8.598;2023-04-25T11:42:00;5.33;;;4.07;;
6665;SDS011;3369;49.906;8.598;2023-04-25T11:44:26;3.33;;;3.03;;
6665;SDS011;3369;49.906;8.598;2023-04-25T11:46:53;3.70;;;3.30;;
6665;SDS011;3369;49.906;8.598;2023-04-25T11:49:18;5.80;;;3.93;;
6665;SDS011;3369;49.906;8.598;2023-04-25T11:51:45;3.93;;;3.33;;
6665;SDS011;3369;49.906;8.598;2023-04-25T11:54:11;3.67;;;3.37;;
6665;SDS011;3369;49.906;8.598;2023-04-25T11:56:41;4.53;;;3.10;;
6665;SDS011;3369;49.906;8.598;2023-04-25T11:59:07;4.67;;;3.47;;
6665;SDS011;3369;49.906;8.598;2023-04-25T12:01:33;5.27;;;3.00;;
6665;SDS011;3369;49.906;8.598;2023-04-25T12:04:11;5.17;;;3.17;;
6665;SDS011;3369;49.906;8.598;2023-04-25T12:06:41;6.80;;;4.03;;
6665;SDS011;3369;49.906;8.598;2023-04-25T12:09:09;5.13;;;3.33;;
6665;SDS011;3369;49.906;8.598;2023-04-25T12:11:42;3.77;;;3.00;;
6665;SDS011;3369;49.906;8.598;2023-04-25T12:14:10;7.57;;;3.30;;
6665;SDS011;3369;49.906;8.598;2023-04-25T12:16:45;4.20;;;2.80;;
6665;SDS011;3369;49.906;8.598;2023-04-25T12:19:15;5.20;;;3.10;;
6665;SDS011;3369;49.906;8.598;2023-04-25T12:21:42;3.77;;;2.80;;
6665;SDS011;3369;49.906;8.598;2023-04-25T12:29:18;2.97;;;2.40;;
6665;SDS011;3369;49.906;8.598;2023-04-25T12:31:49;5.50;;;2.93;;
6665;SDS011;3369;49.906;8.598;2023-04-25T12:34:16;4.17;;;2.90;;
6665;SDS011;3369;49.906;8.598;2023-04-25T12:36:43;7.70;;;3.03;;
6665;SDS011;3369;49.906;8.598;2023-04-25T12:39:08;6.30;;;2.83;;
6665;SDS011;3369;49.906;8.598;2023-04-25T12:41:40;2.67;;;2.43;;
6665;SDS011;3369;49.906;8.598;2023-04-25T12:44:06;3.70;;;2.50;;
6665;SDS011;3369;49.906;8.598;2023-04-25T12:46:31;7.27;;;3.23;;
6665;SDS011;3369;49.906;8.598;2023-04-25T12:48:57;5.83;;;2.90;;
6665;SDS011;3369;49.906;8.598;2023-04-25T12:51:23;6.60;;;3.13;;
6665;SDS011;3369;49.906;8.598;2023-04-25T12:53:50;6.93;;;2.70;;
6665;SDS011;3369;49.906;8.598;2023-04-25T12:56:16;7.63;;;2.80;;
6665;SDS011;3369;49.906;8.598;2023-04-25T12:58:42;2.77;;;2.30;;
6665;SDS011;3369;49.906;8.598;2023-04-25T13:01:09;4.40;;;2.60;;
6665;SDS011;3369;49.906;8.598;2023-04-25T13:03:35;8.63;;;3.33;;
6665;SDS011;3369;49.906;8.598;2023-04-25T13:06:00;5.17;;;2.43;;
6665;SDS011;3369;49.906;8.598;2023-04-25T13:29:14;4.50;;;2.40;;
6665;SDS011;3369;49.906;8.598;2023-04-25T13:31:40;3.70;;;2.17;;
6665;SDS011;3369;49.906;8.598;2023-04-25T13:34:06;3.23;;;2.10;;
6665;SDS011;3369;49.906;8.598;2023-04-25T13:36:32;4.47;;;2.10;;
6665;SDS011;3369;49.906;8.598;2023-04-25T13:38:57;3.57;;;1.80;;
6665;SDS011;3369;49.906;8.598;2023-04-25T13:41:23;3.07;;;2.00;;
6665;SDS011;3369;49.906;8.598;2023-04-25T13:43:49;4.57;;;2.90;;
6665;SDS011;3369;49.906;8.598;2023-04-25T13:46:15;3.07;;;2.00;;
6665;SDS011;3369;49.906;8.598;2023-04-25T13:48:41;5.73;;;2.57;;
6665;SDS011;3369;49.906;8.598;2023-04-25T13:51:11;3.17;;;1.93;;
6665;SDS011;3369;49.906;8.598;2023-04-25T13:53:37;4.03;;;1.93;;
6665;SDS011;3369;49.906;8.598;2023-04-25T13:56:04;4.43;;;1.93;;
6665;SDS011;3369;49.906;8.598;2023-04-25T13:58:30;2.40;;;1.80;;
6665;SDS011;3369;49.906;8.598;2023-04-25T14:00:57;4.00;;;2.47;;
6665;SDS011;3369;49.906;8.598;2023-04-25T14:03:23;3.17;;;2.00;;
6665;SDS011;3369;49.906;8.598;2023-04-25T14:05:48;2.47;;;2.00;;
6665;SDS011;3369;49.906;8.598;2023-04-25T14:08:14;2.97;;;1.97;;
6665;SDS011;3369;49.906;8.598;2023-04-25T14:10:40;3.30;;;2.00;;
6665;SDS011;3369;49.906;8.598;2023-04-25T14:13:06;7.17;;;2.23;;
6665;SDS011;3369;49.906;8.598;2023-04-25T14:15:32;3.73;;;2.47;;
6665;SDS011;3369;49.906;8.598;2023-04-25T14:17:57;3.17;;;1.90;;
6665;SDS011;3369;49.906;8.598;2023-04-25T14:20:23;4.40;;;2.43;;
6665;SDS011;3369;49.906;8.598;2023-04-25T14:22:49;3.63;;;1.87;;
6665;SDS011;3369;49.906;8.598;2023-04-25T14:25:15;6.90;;;2.57;;
6665;SDS011;3369;49.906;8.598;2023-04-25T14:27:41;4.90;;;2.30;;
6665;SDS011;3369;49.906;8.598;2023-04-25T14:30:06;7.50;;;2.50;;
6665;SDS011;3369;49.906;8.598;2023-04-25T14:32:34;5.37;;;2.60;;
6665;SDS011;3369;49.906;8.598;2023-04-25T14:35:00;4.23;;;2.20;;
6665;SDS011;3369;49.906;8.598;2023-04-25T14:37:25;5.13;;;2.33;;
6665;SDS011;3369;49.906;8.598;2023-04-25T14:39:51;3.30;;;2.20;;
6665;SDS011;3369;49.906;8.598;2023-04-25T14:42:16;3.00;;;1.90;;
6665;SDS011;3369;49.906;8.598;2023-04-25T14:44:42;5.23;;;2.23;;
6665;SDS011;3369;49.906;8.598;2023-04-25T14:47:08;3.93;;;2.20;;
6665;SDS011;3369;49.906;8.598;2023-04-25T14:49:33;3.17;;;2.23;;
6665;SDS011;3369;49.906;8.598;2023-04-25T14:51:59;3.97;;;2.13;;
6665;SDS011;3369;49.906;8.598;2023-04-25T14:54:25;2.17;;;1.97;;
6665;SDS011;3369;49.906;8.598;2023-04-25T14:56:50;3.50;;;2.20;;
6665;SDS011;3369;49.906;8.598;2023-04-25T14:59:16;3.77;;;2.23;;
6665;SDS011;3369;49.906;8.598;2023-04-25T15:01:42;4.77;;;2.47;;
6665;SDS011;3369;49.906;8.598;2023-04-25T15:04:07;3.47;;;2.70;;
6665;SDS011;3369;49.906;8.598;2023-04-25T15:06:33;5.93;;;2.33;;
6665;SDS011;3369;49.906;8.598;2023-04-25T15:08:59;6.67;;;2.50;;
6665;SDS011;3369;49.906;8.598;2023-04-25T15:11:24;5.43;;;2.30;;
6665;SDS011;3369;49.906;8.598;2023-04-25T15:13:50;5.73;;;2.77;;
6665;SDS011;3369;49.906;8.598;2023-04-25T15:16:16;5.00;;;2.67;;
6665;SDS011;3369;49.906;8.598;2023-04-25T15:18:42;5.73;;;2.30;;
6665;SDS011;3369;49.906;8.598;2023-04-25T15:21:08;3.03;;;2.13;;
6665;SDS011;3369;49.906;8.598;2023-04-25T15:23:34;3.80;;;2.03;;
6665;SDS011;3369;49.906;8.598;2023-04-25T15:26:00;4.17;;;2.30;;
6665;SDS011;3369;49.906;8.598;2023-04-25T15:28:25;5.90;;;2.73;;
6665;SDS011;3369;49.906;8.598;2023-04-25T15:30:51;4.87;;;2.03;;
6665;SDS011;3369;49.906;8.598;2023-04-25T15:33:17;4.00;;;2.13;;
6665;SDS011;3369;49.906;8.598;2023-04-25T15:35:42;4.77;;;2.27;;
6665;SDS011;3369;49.906;8.598;2023-04-25T15:38:08;5.57;;;2.00;;
6665;SDS011;3369;49.906;8.598;2023-04-25T15:40:35;2.43;;;1.90;;
6665;SDS011;3369;49.906;8.598;2023-04-25T15:43:01;3.97;;;2.00;;
6665;SDS011;3369;49.906;8.598;2023-04-25T15:45:27;3.57;;;2.00;;
6665;SDS011;3369;49.906;8.598;2023-04-25T15:47:54;2.50;;;1.63;;
6665;SDS011;3369;49.906;8.598;2023-04-25T15:50:21;2.80;;;2.07;;
6665;SDS011;3369;49.906;8.598;2023-04-25T15:52:47;2.20;;;1.73;;
6665;SDS011;3369;49.906;8.598;2023-04-25T15:55:13;5.13;;;2.33;;
6665;SDS011;3369;49.906;8.598;2023-04-25T15:57:42;4.07;;;2.00;;
6665;SDS011;3369;49.906;8.598;2023-04-25T16:00:08;4.90;;;1.80;;
6665;SDS011;3369;49.906;8.598;2023-04-25T16:02:36;6.37;;;2.10;;
6665;SDS011;3369;49.906;8.598;2023-04-25T16:05:02;4.33;;;1.87;;
6665;SDS011;3369;49.906;8.598;2023-04-25T16:07:28;2.33;;;1.67;;
6665;SDS011;3369;49.906;8.598;2023-04-25T16:09:54;3.33;;;1.80;;
6665;SDS011;3369;49.906;8.598;2023-04-25T16:12:20;4.47;;;1.90;;
6665;SDS011;3369;49.906;8.598;2023-04-25T16:14:46;5.87;;;2.17;;
6665;SDS011;3369;49.906;8.598;2023-04-25T16:17:12;6.07;;;2.10;;
6665;SDS011;3369;49.906;8.598;2023-04-25T16:19:38;6.37;;;2.00;;
6665;SDS011;3369;49.906;8.598;2023-04-25T16:22:03;6.57;;;2.00;;
6665;SDS011;3369;49.906;8.598;2023-04-25T16:24:29;7.40;;;1.90;;
6665;SDS011;3369;49.906;8.598;2023-04-25T16:26:55;3.53;;;1.70;;
6665;SDS011;3369;49.906;8.598;2023-04-25T16:29:21;4.77;;;1.90;;